Time;durP1;ratioP1;P1;durP2;ratioP2;P2;SDS_P1;SDS_P2;PMS_P1;PMS_P2;Temp;Humidity;BMP_temperature;BMP_pressure;BME280_temperature;BME280_humidity;BME280_pressure;Samples;Min_cycle;Max_cycle;Signal;HPM_P1;HPM_P2
2023/01/22 00:01:55;;;;;;;33.15;17.52;;;-1.60;99.90;;;;;;4950602;28;20142;-72
2023/01/22 00:04:20;;;;;;;34.67;17.98;;;-1.60;99.90;;;;;;4947327;28;20042;-71
2023/01/22 00:06:46;;;;;;;34.13;18.60;;;-1.60;99.90;;;;;;4945620;28;20079;-71
2023/01/22 00:09:12;;;;;;;37.05;18.30;;;-1.60;99.90;;;;;;4957458;28;20534;-72
2023/01/22 00:11:37;;;;;;;38.65;18.33;;;-1.60;99.90;;;;;;4946322;28;20090;-71
2023/01/22 00:14:03;;;;;;;38.03;18.67;;;-1.60;99.90;;;;;;4950428;28;20158;-71
2023/01/22 00:16:28;;;;;;;35.55;17.63;;;-1.50;99.90;;;;;;4944738;28;20118;-71
2023/01/22 00:18:54;;;;;;;39.42;18.25;;;-1.60;99.90;;;;;;4949748;28;20621;-72
2023/01/22 00:21:20;;;;;;;33.70;18.63;;;-1.60;99.90;;;;;;4949533;28;20035;-71
2023/01/22 00:23:45;;;;;;;34.72;17.88;;;-1.60;99.90;;;;;;4935492;28;20121;-72
2023/01/22 00:26:14;;;;;;;32.40;17.17;;;-1.50;99.90;;;;;;4943940;28;20479;-71
2023/01/22 00:28:46;;;;;;;31.95;16.15;;;-1.50;99.90;;;;;;4931529;28;20118;-72
2023/01/22 00:31:13;;;;;;;28.55;15.57;;;-1.50;99.90;;;;;;4953930;28;20153;-72
2023/01/22 00:33:39;;;;;;;36.67;15.75;;;-1.50;99.90;;;;;;4941240;28;20212;-71
2023/01/22 00:36:08;;;;;;;27.73;15.43;;;-1.50;99.90;;;;;;4944307;28;20189;-72
2023/01/22 00:38:34;;;;;;;26.48;14.15;;;-1.50;99.90;;;;;;4954758;28;20049;-72
2023/01/22 00:41:01;;;;;;;31.08;15.07;;;-1.50;99.90;;;;;;4962761;28;20061;-72
2023/01/22 00:43:26;;;;;;;28.40;15.77;;;-1.50;99.90;;;;;;4954977;28;20138;-72
2023/01/22 00:45:52;;;;;;;33.92;15.35;;;-1.50;99.90;;;;;;4944538;28;20077;-71
2023/01/22 00:48:18;;;;;;;28.52;15.13;;;-1.50;99.90;;;;;;4945415;28;20078;-72
2023/01/22 00:50:43;;;;;;;31.40;15.70;;;-1.50;99.90;;;;;;4943199;28;20088;-72
2023/01/22 00:53:09;;;;;;;27.15;14.60;;;-1.50;99.90;;;;;;4962429;28;20382;-72
2023/01/22 00:55:35;;;;;;;32.22;16.20;;;-1.50;99.90;;;;;;4960592;28;20534;-71
2023/01/22 00:58:00;;;;;;;28.92;15.73;;;-1.50;99.90;;;;;;4962228;28;20128;-72
2023/01/22 01:00:26;;;;;;;33.92;16.23;;;-1.50;99.90;;;;;;4948009;28;20035;-72
2023/01/22 01:05:36;;;;;;;34.83;15.75;;;-1.40;99.90;;;;;;4950656;28;20069;-72
2023/01/22 01:08:01;;;;;;;32.42;15.93;;;-1.40;99.90;;;;;;4959375;28;20149;-72
2023/01/22 01:10:27;;;;;;;30.38;15.32;;;-1.40;99.90;;;;;;4958810;28;20216;-72
2023/01/22 01:12:52;;;;;;;35.13;16.60;;;-1.40;99.90;;;;;;4959772;28;20530;-72
2023/01/22 01:15:18;;;;;;;35.20;17.55;;;-1.40;99.90;;;;;;4956734;28;20042;-72
2023/01/22 01:17:45;;;;;;;34.08;16.27;;;-1.30;99.90;;;;;;4959775;28;20420;-71
2023/01/22 01:20:11;;;;;;;31.40;16.63;;;-1.30;99.90;;;;;;4954031;28;20070;-71
2023/01/22 01:22:37;;;;;;;35.63;18.35;;;-1.20;99.90;;;;;;4943825;28;20572;-71
2023/01/22 01:25:03;;;;;;;29.05;16.73;;;-1.20;99.90;;;;;;4932342;28;20042;-72
2023/01/22 01:27:30;;;;;;;33.83;17.30;;;-1.10;99.90;;;;;;4957958;28;20035;-71
2023/01/22 01:29:56;;;;;;;37.05;17.13;;;-1.00;99.90;;;;;;4958450;28;20098;-72
2023/01/22 01:32:22;;;;;;;35.10;17.48;;;-0.90;99.90;;;;;;4956142;28;20464;-71
2023/01/22 01:34:48;;;;;;;39.75;18.63;;;-0.70;99.90;;;;;;4956773;28;20035;-71
2023/01/22 01:37:14;;;;;;;34.38;18.40;;;-0.60;99.90;;;;;;4949343;28;20099;-72
2023/01/22 01:39:40;;;;;;;33.38;18.13;;;-0.60;99.90;;;;;;4945053;28;21700;-71
2023/01/22 01:42:06;;;;;;;38.50;18.80;;;-0.50;99.90;;;;;;4941946;28;20130;-71
2023/01/22 01:44:32;;;;;;;36.53;18.23;;;-0.40;99.90;;;;;;4954878;28;20026;-71
2023/01/22 01:47:07;;;;;;;39.80;19.00;;;-0.30;99.90;;;;;;4954799;28;20031;-72
2023/01/22 01:49:48;;;;;;;32.97;17.75;;;-0.20;99.90;;;;;;4943959;28;20027;-72
2023/01/22 01:52:14;;;;;;;34.60;18.52;;;-0.10;99.90;;;;;;4942988;28;20110;-72
2023/01/22 01:54:43;;;;;;;38.45;18.63;;;-0.10;99.90;;;;;;4944126;28;20050;-72
2023/01/22 01:57:13;;;;;;;40.38;19.00;;;0.00;99.90;;;;;;4941985;28;20031;-71
2023/01/22 01:59:40;;;;;;;36.35;18.45;;;0.00;99.90;;;;;;4936730;28;20054;-72
2023/01/22 02:02:06;;;;;;;39.33;19.30;;;0.00;99.90;;;;;;4942416;28;20227;-73
2023/01/22 02:04:32;;;;;;;34.40;17.77;;;0.00;99.90;;;;;;4958729;28;20035;-71
2023/01/22 02:06:58;;;;;;;37.15;18.55;;;0.00;99.90;;;;;;4943257;28;20151;-72
2023/01/22 02:09:23;;;;;;;30.48;17.67;;;0.00;99.90;;;;;;4949248;28;20035;-72
2023/01/22 02:11:50;;;;;;;39.97;18.10;;;-0.10;99.90;;;;;;4954702;28;20448;-72
2023/01/22 02:14:20;;;;;;;39.42;17.35;;;-0.10;99.90;;;;;;4922230;29;20042;-72
2023/01/22 02:16:46;;;;;;;33.72;18.45;;;-0.20;99.90;;;;;;4931837;28;20034;-72
2023/01/22 02:19:11;;;;;;;33.60;17.42;;;-0.20;99.90;;;;;;4959021;28;20038;-71
2023/01/22 02:21:42;;;;;;;38.78;17.52;;;-0.30;99.90;;;;;;4949796;28;20043;-72
2023/01/22 02:24:14;;;;;;;35.88;18.33;;;-0.30;99.90;;;;;;4952123;28;20397;-72
2023/01/22 02:26:41;;;;;;;39.50;17.20;;;-0.50;99.90;;;;;;4942190;28;20574;-72
2023/01/22 02:29:09;;;;;;;33.75;17.42;;;-0.50;99.90;;;;;;4940800;28;20031;-71
2023/01/22 02:31:36;;;;;;;35.20;18.15;;;-0.40;99.90;;;;;;4931763;29;20035;-72
2023/01/22 02:34:02;;;;;;;31.05;17.00;;;-0.40;99.90;;;;;;4937786;28;20034;-72
2023/01/22 02:36:29;;;;;;;36.25;17.08;;;-0.40;99.90;;;;;;4956151;28;20090;-72
2023/01/22 02:38:54;;;;;;;33.70;17.98;;;-0.30;99.90;;;;;;4942769;28;20027;-72
2023/01/22 02:41:20;;;;;;;33.10;18.67;;;-0.20;99.90;;;;;;4951783;28;20047;-72
2023/01/22 02:43:46;;;;;;;33.67;18.60;;;-0.20;99.90;;;;;;4957502;28;20417;-72
2023/01/22 02:46:11;;;;;;;38.28;19.08;;;-0.10;99.90;;;;;;4951923;28;20031;-72
2023/01/22 02:48:37;;;;;;;33.80;18.63;;;0.00;99.90;;;;;;4939658;28;20105;-72
2023/01/22 02:51:03;;;;;;;40.28;20.45;;;0.00;99.90;;;;;;4942495;28;20505;-72
2023/01/22 02:53:29;;;;;;;35.88;18.52;;;0.00;99.90;;;;;;4934859;28;20482;-72
2023/01/22 02:55:54;;;;;;;35.42;18.90;;;0.00;99.90;;;;;;4935736;28;20368;-71
2023/01/22 02:58:20;;;;;;;38.05;20.02;;;0.00;99.90;;;;;;4934635;29;20035;-71
2023/01/22 03:00:45;;;;;;;34.22;19.08;;;0.00;99.90;;;;;;4936536;28;20133;-72
2023/01/22 03:03:15;;;;;;;38.38;20.42;;;0.10;99.90;;;;;;4941011;28;20039;-72
2023/01/22 03:05:51;;;;;;;44.25;21.58;;;0.10;99.90;;;;;;4939275;28;20594;-71
2023/01/22 03:08:18;;;;;;;39.20;20.23;;;0.20;99.90;;;;;;4952437;28;20034;-72
2023/01/22 03:10:44;;;;;;;38.35;19.50;;;0.20;99.90;;;;;;4953737;28;20038;-72
2023/01/22 03:21:25;;;;;;;41.67;20.10;;;0.20;99.90;;;;;;4951423;28;20046;-71
2023/01/22 03:23:52;;;;;;;31.33;18.63;;;0.20;99.90;;;;;;4938219;28;20093;-72
2023/01/22 03:26:20;;;;;;;40.70;19.38;;;0.20;99.90;;;;;;4923727;29;20027;-72
2023/01/22 03:28:46;;;;;;;33.60;18.38;;;0.20;99.90;;;;;;4949654;28;21145;-72
2023/01/22 03:31:13;;;;;;;41.45;19.42;;;0.20;99.90;;;;;;4954743;28;20042;-72
2023/01/22 03:33:39;;;;;;;35.97;18.52;;;0.30;99.90;;;;;;4957150;28;20062;-71
2023/01/22 03:36:07;;;;;;;38.10;17.83;;;0.30;99.90;;;;;;4958529;28;20066;-72
2023/01/22 03:38:33;;;;;;;33.17;17.38;;;0.30;99.90;;;;;;4933100;28;20065;-72
2023/01/22 03:41:16;;;;;;;31.23;17.05;;;0.30;99.90;;;;;;4939139;28;20102;-72
2023/01/22 03:43:42;;;;;;;34.28;16.60;;;0.40;99.90;;;;;;4955549;28;20081;-72
2023/01/22 03:46:13;;;;;;;34.05;17.65;;;0.50;99.90;;;;;;4950165;28;20077;-72
2023/01/22 03:48:39;;;;;;;33.55;15.98;;;0.40;99.90;;;;;;4957897;28;20070;-72
2023/01/22 03:51:07;;;;;;;32.55;15.30;;;0.50;99.90;;;;;;4947444;28;20130;-72
2023/01/22 03:53:33;;;;;;;40.08;17.75;;;0.50;99.90;;;;;;4947832;28;20399;-72
2023/01/22 03:56:01;;;;;;;30.33;15.13;;;0.60;99.90;;;;;;4941654;28;20131;-72
2023/01/22 03:58:28;;;;;;;32.53;16.88;;;0.60;99.90;;;;;;4940981;28;20034;-71
2023/01/22 04:00:56;;;;;;;35.83;16.20;;;0.70;99.90;;;;;;4953633;28;20150;-72
2023/01/22 04:03:24;;;;;;;31.65;16.92;;;0.70;99.90;;;;;;4958950;28;20113;-72
2023/01/22 04:05:49;;;;;;;33.08;16.92;;;0.60;99.90;;;;;;4947255;28;20388;-72
2023/01/22 04:08:15;;;;;;;35.13;15.63;;;0.50;99.90;;;;;;4934231;28;20105;-72
2023/01/22 04:10:41;;;;;;;38.13;17.67;;;0.60;99.90;;;;;;4939586;28;20053;-71
2023/01/22 04:13:07;;;;;;;31.42;18.23;;;0.60;99.90;;;;;;4956493;28;20145;-72
2023/01/22 04:15:33;;;;;;;31.58;16.95;;;0.60;99.90;;;;;;4948542;28;20603;-71
2023/01/22 04:17:58;;;;;;;30.98;16.60;;;0.60;99.90;;;;;;4926427;28;20121;-72
2023/01/22 04:20:24;;;;;;;34.70;18.15;;;0.60;99.90;;;;;;4947725;28;20028;-71
2023/01/22 04:22:50;;;;;;;34.38;16.23;;;0.60;99.90;;;;;;4947239;28;20134;-71
2023/01/22 04:25:16;;;;;;;33.78;16.95;;;0.60;99.90;;;;;;4937874;28;20334;-71
2023/01/22 04:27:43;;;;;;;28.73;16.95;;;0.70;99.90;;;;;;4958716;28;20126;-71
2023/01/22 04:30:09;;;;;;;37.58;18.08;;;0.70;99.90;;;;;;4949801;28;20295;-72
2023/01/22 04:32:35;;;;;;;34.50;17.92;;;0.80;99.90;;;;;;4955719;28;20525;-72
2023/01/22 04:35:00;;;;;;;36.10;18.02;;;0.80;99.90;;;;;;4941623;28;20082;-72
2023/01/22 04:37:26;;;;;;;37.17;18.30;;;0.80;99.90;;;;;;4954394;28;20027;-72
2023/01/22 04:39:52;;;;;;;30.85;16.23;;;0.80;99.90;;;;;;4942091;29;20027;-71
2023/01/22 04:42:17;;;;;;;35.97;17.88;;;0.90;99.90;;;;;;4955159;28;20094;-71
2023/01/22 04:44:43;;;;;;;37.60;18.50;;;0.90;99.90;;;;;;4945249;28;20364;-71
2023/01/22 04:47:08;;;;;;;35.10;17.48;;;0.90;99.90;;;;;;4958145;28;20165;-72
2023/01/22 04:49:34;;;;;;;33.42;18.15;;;0.80;99.90;;;;;;4940113;28;20031;-72
2023/01/22 04:52:00;;;;;;;35.42;17.75;;;0.80;99.90;;;;;;4953889;28;20046;-72
2023/01/22 04:54:25;;;;;;;32.63;17.45;;;0.80;99.90;;;;;;4954881;28;20157;-72
2023/01/22 04:56:51;;;;;;;32.63;17.25;;;0.70;99.90;;;;;;4939633;28;20294;-72
2023/01/22 04:59:17;;;;;;;31.60;17.98;;;0.70;99.90;;;;;;4921176;29;20043;-71
2023/01/22 05:01:43;;;;;;;34.22;17.48;;;0.70;99.90;;;;;;4945958;28;20051;-72
2023/01/22 05:04:09;;;;;;;35.33;17.27;;;0.70;99.90;;;;;;4957250;28;20374;-72
2023/01/22 05:06:35;;;;;;;36.67;18.00;;;0.70;99.90;;;;;;4936134;28;20109;-72
2023/01/22 05:09:00;;;;;;;34.70;16.92;;;0.60;99.90;;;;;;4942988;28;20461;-72
2023/01/22 05:11:26;;;;;;;36.55;18.45;;;0.60;99.90;;;;;;4952942;28;20039;-72
2023/01/22 05:13:53;;;;;;;35.15;17.42;;;0.60;99.90;;;;;;4942125;28;20067;-72
2023/01/22 05:16:18;;;;;;;36.35;17.92;;;0.60;99.90;;;;;;4930694;28;20694;-72
2023/01/22 05:18:44;;;;;;;31.67;17.25;;;0.50;99.90;;;;;;4953418;28;20564;-71
2023/01/22 05:21:10;;;;;;;35.05;17.02;;;0.50;99.90;;;;;;4923355;29;20063;-72
2023/01/22 05:23:35;;;;;;;35.55;18.48;;;0.50;99.90;;;;;;4956016;28;20034;-71
2023/01/22 05:26:01;;;;;;;42.30;19.63;;;0.50;99.90;;;;;;4950791;28;20035;-72
2023/01/22 05:28:26;;;;;;;35.83;19.48;;;0.50;99.90;;;;;;4942159;28;20039;-72
2023/01/22 05:30:52;;;;;;;40.90;19.58;;;0.40;99.90;;;;;;4955677;28;20026;-72
2023/01/22 05:33:18;;;;;;;37.15;18.85;;;0.40;99.90;;;;;;4954509;28;20474;-72
2023/01/22 05:35:44;;;;;;;43.33;19.00;;;0.40;99.90;;;;;;4954675;28;20089;-72
2023/01/22 05:38:09;;;;;;;34.92;19.30;;;0.40;99.90;;;;;;4946399;28;20047;-72
2023/01/22 05:40:35;;;;;;;39.30;20.48;;;0.50;99.90;;;;;;4940961;28;20031;-72
2023/01/22 05:43:04;;;;;;;39.75;18.73;;;0.50;99.90;;;;;;4939260;29;20110;-72
2023/01/22 05:45:29;;;;;;;35.17;17.92;;;0.60;99.90;;;;;;4937246;28;20035;-72
2023/01/22 05:47:55;;;;;;;35.40;17.92;;;0.50;99.90;;;;;;4943829;28;20031;-72
2023/01/22 05:50:21;;;;;;;35.58;18.00;;;0.60;99.90;;;;;;4936575;28;20033;-72
2023/01/22 05:52:46;;;;;;;37.92;19.10;;;0.60;99.90;;;;;;4945218;28;20035;-72
2023/01/22 05:55:12;;;;;;;34.63;18.40;;;0.70;99.90;;;;;;4937530;28;20398;-72
2023/01/22 05:57:38;;;;;;;35.55;17.67;;;0.70;99.90;;;;;;4940769;28;20748;-72
2023/01/22 06:00:05;;;;;;;33.42;17.52;;;0.70;99.90;;;;;;4939645;28;20027;-72
2023/01/22 06:02:31;;;;;;;38.30;18.10;;;0.80;99.90;;;;;;4937394;28;20059;-72
2023/01/22 06:04:56;;;;;;;34.72;18.40;;;0.80;99.90;;;;;;4929079;28;20250;-72
2023/01/22 06:07:22;;;;;;;29.30;17.08;;;0.80;99.90;;;;;;4946750;28;20066;-71
2023/01/22 06:09:48;;;;;;;31.67;17.48;;;0.80;99.90;;;;;;4933990;28;20105;-72
2023/01/22 06:12:14;;;;;;;28.35;17.30;;;0.70;99.90;;;;;;4935400;28;20420;-71
2023/01/22 06:14:40;;;;;;;32.88;16.98;;;0.70;99.90;;;;;;4935212;28;20027;-72
2023/01/22 06:17:06;;;;;;;32.45;17.88;;;0.70;99.90;;;;;;4936591;29;20078;-72
2023/01/22 06:19:32;;;;;;;38.00;18.20;;;0.70;99.90;;;;;;4950297;28;20439;-72
2023/01/22 06:21:57;;;;;;;35.40;17.25;;;0.80;99.90;;;;;;4956655;28;20039;-72
2023/01/22 06:24:23;;;;;;;36.20;16.73;;;0.80;99.90;;;;;;4953133;28;20855;-72
2023/01/22 06:26:48;;;;;;;30.38;16.90;;;0.70;99.90;;;;;;4930366;28;20038;-71
2023/01/22 06:29:14;;;;;;;35.17;18.40;;;0.80;99.90;;;;;;4953402;28;20044;-71
2023/01/22 06:31:40;;;;;;;30.80;17.60;;;0.70;99.90;;;;;;4941516;28;20427;-71
2023/01/22 06:34:05;;;;;;;34.90;17.15;;;0.80;99.90;;;;;;4937676;29;20427;-72
2023/01/22 06:36:31;;;;;;;31.45;18.25;;;0.80;99.90;;;;;;4948360;28;20047;-72
2023/01/22 06:38:57;;;;;;;35.47;18.08;;;0.80;99.90;;;;;;4944719;28;20023;-72
2023/01/22 06:41:22;;;;;;;39.15;18.40;;;0.80;99.90;;;;;;4939132;28;20035;-72
2023/01/22 06:43:48;;;;;;;33.83;17.42;;;0.80;99.90;;;;;;4952716;28;20125;-72
2023/01/22 06:46:14;;;;;;;32.90;17.92;;;0.70;99.90;;;;;;4936284;29;20031;-71
2023/01/22 06:48:42;;;;;;;35.45;18.98;;;0.70;99.90;;;;;;4946058;28;20034;-72
2023/01/22 06:51:11;;;;;;;35.78;18.35;;;0.70;99.90;;;;;;4945570;28;20023;-72
2023/01/22 06:53:37;;;;;;;34.38;17.60;;;0.70;99.90;;;;;;4938129;29;20505;-72
2023/01/22 06:56:03;;;;;;;33.33;17.80;;;0.70;99.90;;;;;;4952155;28;20093;-72
2023/01/22 06:58:29;;;;;;;32.90;18.65;;;0.70;99.90;;;;;;4954074;28;20030;-72
2023/01/22 07:01:00;;;;;;;39.45;19.08;;;0.60;99.90;;;;;;4948990;28;20044;-71
2023/01/22 07:03:25;;;;;;;33.00;18.85;;;0.60;99.90;;;;;;4938698;28;20142;-72
2023/01/22 07:05:58;;;;;;;37.22;18.73;;;0.60;99.90;;;;;;4936209;28;20138;-72
2023/01/22 07:08:25;;;;;;;72.07;31.83;;;0.60;99.90;;;;;;4930796;29;20081;-72
2023/01/22 07:10:51;;;;;;;39.25;19.85;;;0.60;99.90;;;;;;4942374;28;20022;-72
2023/01/22 07:13:16;;;;;;;37.13;19.25;;;0.60;99.90;;;;;;4940114;28;20510;-71
2023/01/22 07:15:42;;;;;;;33.70;18.65;;;0.50;99.90;;;;;;4940139;28;20082;-72
2023/01/22 07:18:09;;;;;;;37.38;17.90;;;0.50;99.90;;;;;;4943815;28;20557;-72
2023/01/22 07:20:36;;;;;;;34.83;17.15;;;0.50;99.90;;;;;;4953506;28;20023;-72
2023/01/22 07:23:01;;;;;;;36.55;16.85;;;0.50;99.90;;;;;;4954982;28;20045;-73
2023/01/22 07:25:27;;;;;;;181.88;73.28;;;0.40;99.90;;;;;;4944978;28;20075;-72
2023/01/22 07:28:01;;;;;;;58.80;25.77;;;0.40;99.90;;;;;;4938094;28;20031;-73
2023/01/22 07:30:27;;;;;;;35.63;17.77;;;0.40;99.90;;;;;;4939521;28;20046;-72
2023/01/22 07:32:53;;;;;;;35.03;17.55;;;0.30;99.90;;;;;;4953143;28;20050;-73
2023/01/22 07:35:19;;;;;;;31.40;17.63;;;0.20;99.90;;;;;;4947478;28;20031;-73
2023/01/22 07:37:52;;;;;;;31.98;16.95;;;0.20;99.90;;;;;;4955386;28;20403;-73
2023/01/22 07:40:18;;;;;;;30.25;16.67;;;0.10;99.90;;;;;;4950586;28;20081;-73
2023/01/22 07:42:43;;;;;;;50.35;24.27;;;0.00;99.90;;;;;;4945201;28;20569;-72
2023/01/22 07:45:09;;;;;;;35.38;17.58;;;-0.10;99.90;;;;;;4946827;28;20127;-72
2023/01/22 07:47:34;;;;;;;32.45;17.55;;;-0.20;99.90;;;;;;4945831;28;20043;-72
2023/01/22 07:50:00;;;;;;;30.92;16.25;;;-0.20;99.90;;;;;;4942912;28;20490;-72
2023/01/22 07:52:26;;;;;;;33.13;15.98;;;-0.30;99.90;;;;;;4933000;28;20034;-72
2023/01/22 07:54:51;;;;;;;34.08;15.93;;;-0.30;99.90;;;;;;4943318;28;20032;-72
2023/01/22 07:57:17;;;;;;;30.58;15.60;;;-0.40;99.90;;;;;;4944593;28;20427;-72
2023/01/22 07:59:43;;;;;;;27.52;16.02;;;-0.40;99.90;;;;;;4957036;28;20050;-72
2023/01/22 08:02:18;;;;;;;34.92;15.52;;;-0.40;99.90;;;;;;4952308;28;20050;-71
2023/01/22 08:04:43;;;;;;;29.10;15.35;;;-0.50;99.90;;;;;;4943464;28;20046;-71
2023/01/22 08:07:16;;;;;;;29.25;15.80;;;-0.50;99.90;;;;;;4945170;28;20039;-70
2023/01/22 08:09:42;;;;;;;36.08;17.50;;;-0.50;99.90;;;;;;4955404;28;20062;-71
2023/01/22 08:12:08;;;;;;;33.80;16.98;;;-0.50;99.90;;;;;;4958499;28;20027;-73
2023/01/22 08:14:33;;;;;;;33.22;17.45;;;-0.50;99.90;;;;;;4954123;28;20035;-73
2023/01/22 08:16:59;;;;;;;34.08;16.88;;;-0.60;99.90;;;;;;4959829;28;20067;-73
2023/01/22 08:19:28;;;;;;;36.40;16.60;;;-0.60;99.90;;;;;;4960391;28;20030;-73
2023/01/22 08:21:54;;;;;;;34.33;17.88;;;-0.60;99.90;;;;;;4960679;28;20145;-73
2023/01/22 08:24:19;;;;;;;34.80;17.90;;;-0.60;99.90;;;;;;4942825;29;20799;-73
2023/01/22 08:26:46;;;;;;;37.00;17.30;;;-0.60;99.90;;;;;;4944503;28;20055;-73
2023/01/22 08:29:12;;;;;;;33.90;17.48;;;-0.60;99.90;;;;;;4943747;28;20413;-73
2023/01/22 08:31:37;;;;;;;33.60;16.30;;;-0.60;99.90;;;;;;4953823;28;20038;-73
2023/01/22 08:34:03;;;;;;;31.58;17.52;;;-0.50;99.90;;;;;;4945946;28;20041;-72
2023/01/22 08:36:28;;;;;;;34.67;17.52;;;-0.40;99.90;;;;;;4956725;28;20064;-73
2023/01/22 08:38:54;;;;;;;32.50;16.40;;;-0.30;99.90;;;;;;4953000;28;20043;-73
2023/01/22 08:41:20;;;;;;;35.42;17.40;;;-0.20;99.90;;;;;;4950264;28;20539;-72
2023/01/22 08:43:46;;;;;;;32.35;17.08;;;0.00;99.90;;;;;;4954161;28;20127;-73
2023/01/22 08:46:11;;;;;;;33.05;18.00;;;0.20;99.90;;;;;;4942710;28;20157;-73
2023/01/22 08:48:38;;;;;;;34.15;17.42;;;0.30;99.90;;;;;;4960906;28;20414;-73
2023/01/22 08:51:04;;;;;;;30.55;15.73;;;0.50;99.90;;;;;;4960775;28;20335;-73
2023/01/22 08:53:30;;;;;;;27.35;15.55;;;0.50;99.90;;;;;;4952264;28;20031;-73
2023/01/22 08:55:55;;;;;;;29.23;15.73;;;0.50;99.90;;;;;;4941940;28;20028;-73
2023/01/22 08:58:24;;;;;;;33.17;17.13;;;0.70;99.90;;;;;;4942407;28;20084;-73
2023/01/22 09:00:50;;;;;;;31.00;16.35;;;0.90;99.90;;;;;;4957893;28;20634;-73
2023/01/22 09:03:16;;;;;;;26.88;15.02;;;1.00;99.90;;;;;;4956626;28;20470;-72
2023/01/22 09:05:41;;;;;;;31.85;15.48;;;1.30;99.90;;;;;;4955593;28;20024;-72
2023/01/22 09:08:07;;;;;;;26.70;15.25;;;1.40;99.90;;;;;;4960767;28;20134;-73
2023/01/22 09:10:33;;;;;;;29.70;14.85;;;1.50;99.90;;;;;;4959297;28;20510;-72
2023/01/22 09:12:59;;;;;;;69.22;39.03;;;1.80;99.90;;;;;;4956908;28;20037;-73
2023/01/22 09:15:26;;;;;;;36.20;18.52;;;2.00;99.90;;;;;;4945457;28;20544;-72
2023/01/22 09:17:52;;;;;;;29.63;15.57;;;2.20;99.90;;;;;;4941325;28;20105;-72
2023/01/22 09:20:18;;;;;;;26.92;14.45;;;2.20;99.90;;;;;;4946426;28;20501;-72
2023/01/22 09:22:44;;;;;;;27.10;14.93;;;2.10;99.90;;;;;;4961945;28;20054;-72
2023/01/22 09:25:10;;;;;;;30.13;15.60;;;2.00;99.90;;;;;;4953373;28;20108;-72
2023/01/22 09:27:35;;;;;;;28.27;15.30;;;2.20;99.90;;;;;;4957938;28;20034;-73
2023/01/22 09:30:02;;;;;;;25.95;14.10;;;2.80;99.20;;;;;;4952587;28;20487;-72
2023/01/22 09:32:27;;;;;;;26.15;14.68;;;3.30;92.30;;;;;;4953502;28;20035;-72
2023/01/22 09:34:53;;;;;;;26.20;14.35;;;3.60;90.10;;;;;;4950960;28;20054;-72
2023/01/22 09:37:19;;;;;;;28.35;15.05;;;3.70;88.50;;;;;;4960974;28;20087;-72
2023/01/22 09:39:48;;;;;;;27.25;13.55;;;3.80;88.50;;;;;;4945315;28;20031;-72
2023/01/22 09:42:32;;;;;;;25.63;13.85;;;4.00;86.00;;;;;;4935273;28;20058;-72
2023/01/22 09:45:05;;;;;;;28.63;14.52;;;4.10;86.90;;;;;;4934055;28;20461;-72
2023/01/22 09:47:37;;;;;;;26.55;13.57;;;4.30;85.30;;;;;;4952167;28;20031;-72
2023/01/22 09:50:11;;;;;;;30.83;13.20;;;4.70;82.00;;;;;;4930573;28;20027;-72
2023/01/22 09:52:38;;;;;;;23.75;13.30;;;5.00;80.00;;;;;;4944459;28;20027;-72
2023/01/22 09:55:15;;;;;;;22.85;12.27;;;5.40;77.80;;;;;;4945098;28;20058;-72
2023/01/22 09:57:45;;;;;;;22.95;13.30;;;5.80;75.10;;;;;;4943426;28;20094;-72
2023/01/22 10:00:17;;;;;;;22.70;12.45;;;6.60;72.40;;;;;;4938368;28;20028;-73
2023/01/22 10:02:47;;;;;;;22.77;12.23;;;6.90;68.50;;;;;;4945906;28;20046;-71
2023/01/22 10:05:18;;;;;;;28.23;13.15;;;6.90;67.90;;;;;;4946491;28;20223;-72
2023/01/22 10:07:47;;;;;;;;;;;6.90;67.80;;;;;;4949700;28;20035;-72
2023/01/22 10:10:25;;;;;;;24.80;13.18;;;6.40;68.80;;;;;;4928472;28;19918;-72
2023/01/22 10:12:58;;;;;;;23.90;12.45;;;6.40;70.40;;;;;;4943352;28;20031;-72
2023/01/22 10:15:24;;;;;;;26.80;14.10;;;6.50;70.50;;;;;;4945351;28;20031;-72
2023/01/22 10:17:51;;;;;;;20.77;11.90;;;6.60;70.40;;;;;;4947215;28;20154;-72
2023/01/22 10:20:20;;;;;;;25.02;13.77;;;6.70;70.00;;;;;;4952301;28;20519;-72
2023/01/22 10:22:47;;;;;;;25.45;12.60;;;6.70;69.90;;;;;;4950244;28;20487;-73
2023/01/22 10:25:14;;;;;;;25.48;13.52;;;6.80;70.60;;;;;;4940574;28;20055;-72
2023/01/22 10:27:40;;;;;;;21.70;13.30;;;6.80;70.10;;;;;;4937708;28;20035;-73
2023/01/22 10:30:19;;;;;;;22.88;12.77;;;6.90;70.40;;;;;;4930992;28;20038;-72
2023/01/22 10:32:56;;;;;;;25.08;13.25;;;7.20;69.80;;;;;;4943271;28;20354;-72
2023/01/22 10:35:21;;;;;;;26.58;12.88;;;7.20;69.50;;;;;;4942405;28;20058;-72
2023/01/22 10:37:52;;;;;;;24.63;12.85;;;7.00;69.50;;;;;;4940555;28;20125;-73
2023/01/22 10:40:25;;;;;;;23.90;13.48;;;7.10;70.50;;;;;;4945236;28;20050;-72
2023/01/22 10:43:02;;;;;;;26.25;14.25;;;7.10;71.10;;;;;;4949061;28;20354;-72
2023/01/22 10:45:28;;;;;;;24.15;12.20;;;7.30;71.30;;;;;;4943199;28;20035;-72
2023/01/22 10:48:15;;;;;;;21.33;11.82;;;7.60;70.00;;;;;;4948250;28;20081;-72
2023/01/22 10:50:42;;;;;;;19.83;11.25;;;7.80;69.80;;;;;;4949489;28;20035;-72
2023/01/22 10:53:28;;;;;;;22.05;11.23;;;8.10;68.70;;;;;;4931784;28;20060;-72
2023/01/22 10:55:57;;;;;;;18.50;9.98;;;8.30;69.20;;;;;;4943935;28;20023;-72
2023/01/22 10:58:28;;;;;;;17.38;10.43;;;8.40;68.20;;;;;;4947804;28;20042;-72
2023/01/22 11:01:00;;;;;;;19.38;10.90;;;8.50;66.80;;;;;;4944455;28;20467;-72
2023/01/22 11:03:37;;;;;;;18.58;10.23;;;8.80;66.60;;;;;;4930809;28;20058;-72
2023/01/22 11:06:14;;;;;;;18.27;9.20;;;9.50;64.30;;;;;;4953752;28;20082;-72
2023/01/22 11:09:00;;;;;;;13.25;8.32;;;9.80;62.40;;;;;;4959473;28;20059;-72
2023/01/22 11:11:33;;;;;;;12.70;8.15;;;10.10;61.10;;;;;;4951207;28;20398;-73
2023/01/22 11:14:25;;;;;;;13.20;8.30;;;10.50;60.00;;;;;;4948349;28;20136;-72
2023/01/22 11:16:53;;;;;;;13.07;8.18;;;11.10;57.90;;;;;;4941661;28;21360;-72
2023/01/22 11:19:22;;;;;;;16.45;8.98;;;12.10;55.10;;;;;;4943086;28;20550;-72
2023/01/22 11:21:51;;;;;;;19.15;11.20;;;13.00;52.70;;;;;;4957485;28;20514;-72
2023/01/22 11:24:21;;;;;;;16.95;9.75;;;13.80;50.30;;;;;;4943118;28;20048;-72
2023/01/22 11:26:53;;;;;;;15.88;9.82;;;14.60;47.50;;;;;;4944393;28;20401;-72
2023/01/22 11:29:51;;;;;;;15.23;8.32;;;15.00;45.70;;;;;;4951501;28;20301;-72
2023/01/22 11:32:34;;;;;;;17.63;9.15;;;15.70;44.60;;;;;;4952432;28;20498;-72
2023/01/22 11:35:44;;;;;;;13.05;8.45;;;17.00;41.60;;;;;;4943280;28;20181;-72
2023/01/22 11:38:09;;;;;;;14.02;8.68;;;17.30;40.90;;;;;;4924643;28;20539;-71
2023/01/22 11:40:42;;;;;;;14.88;9.13;;;16.30;42.30;;;;;;4947842;28;20038;-71
2023/01/22 11:43:17;;;;;;;12.55;8.30;;;15.00;45.60;;;;;;4947004;28;20049;-72
2023/01/22 11:45:52;;;;;;;14.52;8.93;;;13.90;48.30;;;;;;4948799;28;20035;-71
2023/01/22 11:48:42;;;;;;;16.30;9.75;;;12.10;51.60;;;;;;4945676;28;20035;-72
2023/01/22 11:51:38;;;;;;;19.05;9.35;;;10.60;55.90;;;;;;4950979;28;20049;-72
2023/01/22 11:54:25;;;;;;;17.98;9.35;;;10.40;59.00;;;;;;4953344;28;20106;-72
2023/01/22 11:57:01;;;;;;;16.08;9.75;;;10.10;61.10;;;;;;4946283;28;20042;-72
2023/01/22 11:59:33;;;;;;;17.05;9.93;;;10.20;61.00;;;;;;4956443;28;20470;-72
2023/01/22 12:01:58;;;;;;;;;;;10.60;63.10;;;;;;4958538;28;20046;-72
2023/01/22 12:04:33;;;;;;;16.15;9.10;;;11.00;60.10;;;;;;4926024;29;19937;-72
2023/01/22 12:07:19;;;;;;;15.35;9.25;;;11.20;59.90;;;;;;4947076;28;20550;-71
2023/01/22 12:10:04;;;;;;;16.88;9.52;;;11.40;59.20;;;;;;4930438;28;20042;-71
2023/01/22 12:12:44;;;;;;;17.52;9.13;;;11.50;58.70;;;;;;4947829;28;20027;-72
2023/01/22 12:15:41;;;;;;;16.65;9.02;;;11.80;58.30;;;;;;4946969;28;20316;-71
2023/01/22 12:18:12;;;;;;;17.77;8.90;;;11.90;57.90;;;;;;4944655;28;20046;-72
2023/01/22 12:20:41;;;;;;;17.50;9.20;;;12.10;56.60;;;;;;4949699;28;20038;-71
2023/01/22 12:23:26;;;;;;;17.40;9.45;;;12.30;56.70;;;;;;4937605;28;20078;-72
2023/01/22 12:26:12;;;;;;;17.73;9.35;;;12.50;58.20;;;;;;4951595;28;20212;-73
2023/01/22 12:28:50;;;;;;;17.10;9.20;;;12.40;55.20;;;;;;4944284;28;20035;-73
2023/01/22 12:31:45;;;;;;;16.80;8.38;;;12.50;56.60;;;;;;4930624;28;20169;-72
2023/01/22 12:34:21;;;;;;;13.73;7.68;;;12.50;56.70;;;;;;4946054;28;20044;-71
2023/01/22 12:36:48;;;;;;;9.32;5.65;;;12.20;56.70;;;;;;4953913;28;20062;-72
2023/01/22 12:39:32;;;;;;;9.32;5.03;;;12.10;57.20;;;;;;4953845;28;20034;-72
2023/01/22 12:42:19;;;;;;;7.18;4.80;;;12.00;57.00;;;;;;4952660;28;20528;-72
2023/01/22 12:45:01;;;;;;;9.52;5.35;;;11.80;57.60;;;;;;4950087;28;20062;-71
2023/01/22 12:47:39;;;;;;;9.93;5.32;;;11.60;57.30;;;;;;4954218;28;20066;-72
2023/01/22 12:50:22;;;;;;;11.35;5.22;;;11.50;57.60;;;;;;4952295;28;20149;-72
2023/01/22 12:53:20;;;;;;;11.75;6.43;;;11.10;61.60;;;;;;4955998;28;20498;-72
2023/01/22 12:56:04;;;;;;;10.68;6.18;;;11.30;61.30;;;;;;4945737;28;20050;-72